Time;durP1;ratioP1;P1;durP2;ratioP2;P2;SDS_P1;SDS_P2;PMS_P1;PMS_P2;Temp;Humidity;BMP_temperature;BMP_pressure;BME280_temperature;BME280_humidity;BME280_pressure;Samples;Min_cycle;Max_cycle;Signal;HPM_P1;HPM_P2
2022/05/17 00:01:23;;;;;;;7.72;2.42;;;;;;;41.64;8.34;100439.56;4957376;29;20110;-61
2022/05/17 00:03:50;;;;;;;12.30;2.60;;;;;;;40.70;8.55;100435.28;4956778;28;20047;-61
2022/05/17 00:06:16;;;;;;;5.68;1.98;;;;;;;41.85;7.90;100428.34;4954665;29;20039;-60
2022/05/17 00:08:43;;;;;;;11.82;2.30;;;;;;;40.78;8.56;100438.59;4957235;29;20415;-63
2022/05/17 00:11:10;;;;;;;10.48;2.40;;;;;;;40.72;8.47;100436.38;4956901;29;20458;-63
2022/05/17 00:13:37;;;;;;;10.93;2.70;;;;;;;40.69;8.58;100425.16;4957314;29;20034;-60
2022/05/17 00:16:04;;;;;;;11.10;2.20;;;;;;;40.60;8.94;100420.28;4957046;28;20063;-63
2022/05/17 00:18:33;;;;;;;11.82;2.30;;;;;;;40.54;8.60;100425.03;4957173;28;20512;-62
2022/05/17 00:21:00;;;;;;;16.13;2.45;;;;;;;40.40;8.57;100420.81;4957109;29;20485;-62
2022/05/17 00:23:27;;;;;;;9.80;2.20;;;;;;;41.17;8.29;100425.28;4956935;29;20542;-60
2022/05/17 00:25:55;;;;;;;7.95;2.00;;;;;;;40.86;8.44;100429.22;4957100;28;20397;-62
2022/05/17 00:28:22;;;;;;;8.52;1.83;;;;;;;41.81;7.62;100422.81;4957037;28;20028;-60
2022/05/17 00:30:50;;;;;;;6.15;1.85;;;;;;;40.75;8.16;100426.06;4954423;29;20137;-60
2022/05/17 00:33:17;;;;;;;7.10;1.90;;;;;;;40.53;8.56;100429.16;4956895;29;20027;-62
2022/05/17 00:35:45;;;;;;;5.22;1.73;;;;;;;40.26;8.94;100424.28;4953696;28;20086;-64
2022/05/17 00:38:13;;;;;;;9.65;1.70;;;;;;;40.70;8.42;100423.88;4956328;28;20269;-62
2022/05/17 00:40:40;;;;;;;10.40;1.98;;;;;;;40.10;8.49;100424.63;4956784;29;20087;-61
2022/05/17 00:43:14;;;;;;;5.25;1.85;;;;;;;39.75;8.80;100418.44;4956537;29;20031;-60
2022/05/17 00:45:49;;;;;;;8.15;1.63;;;;;;;40.23;8.40;100422.41;4956278;29;20042;-62
2022/05/17 00:48:18;;;;;;;5.95;1.80;;;;;;;39.98;9.07;100417.03;4956677;29;20550;-60
2022/05/17 00:50:49;;;;;;;10.95;1.65;;;;;;;39.96;8.57;100413.88;4954362;29;20073;-61
2022/05/17 00:53:42;;;;;;;8.85;1.80;;;;;;;40.35;8.42;100410.03;4956547;29;20118;-61
2022/05/17 00:56:19;;;;;;;12.05;2.30;;;;;;;40.28;9.24;100418.91;4952444;29;20055;-60
2022/05/17 00:58:51;;;;;;;8.10;2.10;;;;;;;40.13;9.11;100406.59;4954190;29;20386;-60
2022/05/17 01:01:21;;;;;;;11.88;2.10;;;;;;;39.07;9.54;100412.72;4953985;29;20035;-60
2022/05/17 01:04:10;;;;;;;14.45;2.08;;;;;;;39.16;9.46;100409.97;4954921;28;20042;-60
2022/05/17 01:06:47;;;;;;;8.38;2.03;;;;;;;38.87;9.50;100423.72;4956295;29;20042;-60
2022/05/17 01:09:14;;;;;;;8.65;1.98;;;;;;;38.54;9.45;100417.69;4956136;29;20031;-60
2022/05/17 01:11:42;;;;;;;10.98;2.28;;;;;;;39.05;9.43;100408.78;4956362;29;20028;-61
2022/05/17 01:16:56;;;;;;;11.80;3.28;;;;;;;38.53;9.94;100418.94;4953233;29;20028;-62
2022/05/17 01:19:22;;;;;;;8.50;2.45;;;;;;;38.21;9.61;100426.63;4954560;28;20118;-61
2022/05/17 01:21:49;;;;;;;9.95;2.17;;;;;;;38.45;9.31;100420.50;4956051;29;20039;-61
2022/05/17 01:24:16;;;;;;;13.45;1.95;;;;;;;38.43;9.02;100420.16;4953482;29;20030;-59
2022/05/17 01:26:47;;;;;;;12.57;2.35;;;;;;;38.25;9.25;100409.47;4956108;29;20027;-61
2022/05/17 01:29:14;;;;;;;8.07;2.00;;;;;;;38.50;9.20;100409.31;4955722;29;20038;-61
2022/05/17 01:31:41;;;;;;;10.23;2.03;;;;;;;38.39;9.28;100414.59;4955924;29;20042;-60
2022/05/17 01:34:12;;;;;;;10.00;2.05;;;;;;;38.01;9.75;100418.41;4955217;28;20098;-59
2022/05/17 01:36:41;;;;;;;4.65;1.70;;;;;;;37.78;9.87;100421.69;4950990;29;20067;-61
2022/05/17 01:39:08;;;;;;;10.18;2.20;;;;;;;37.74;10.24;100418.19;4955718;29;20054;-61
2022/05/17 01:41:35;;;;;;;14.48;2.30;;;;;;;37.16;10.75;100426.97;4955766;29;20091;-61
2022/05/17 01:44:03;;;;;;;13.57;2.25;;;;;;;37.18;10.96;100424.50;4955647;28;20390;-60
2022/05/17 01:46:29;;;;;;;16.25;2.67;;;;;;;37.03;10.80;100429.06;4955499;29;20035;-60
2022/05/17 01:48:57;;;;;;;17.23;2.22;;;;;;;36.80;11.33;100427.34;4955510;29;20025;-61
2022/05/17 01:51:24;;;;;;;20.25;2.35;;;;;;;36.84;10.83;100428.84;4955513;29;20027;-61
2022/05/17 01:53:51;;;;;;;13.77;2.50;;;;;;;36.84;11.06;100428.84;4955515;29;20043;-61
2022/05/17 01:56:18;;;;;;;19.55;2.38;;;;;;;36.78;11.85;100424.13;4955783;29;20498;-60
2022/05/17 01:58:45;;;;;;;19.75;2.83;;;;;;;36.50;11.50;100442.81;4955919;29;20027;-59
2022/05/17 02:01:12;;;;;;;15.18;2.58;;;;;;;36.15;11.34;100438.94;4955488;28;20031;-64
2022/05/17 02:03:39;;;;;;;10.63;2.25;;;;;;;35.99;11.26;100442.59;4955550;28;20047;-62
2022/05/17 02:06:06;;;;;;;19.52;2.70;;;;;;;35.72;11.88;100451.38;4955291;28;20113;-61
2022/05/17 02:08:33;;;;;;;38.53;3.28;;;;;;;35.59;12.60;100445.66;4938506;29;20027;-60
2022/05/17 02:11:00;;;;;;;21.25;3.03;;;;;;;35.38;12.63;100449.03;4955673;28;20035;-60
2022/05/17 02:13:27;;;;;;;32.10;3.60;;;;;;;35.21;12.52;100456.69;4954842;28;20102;-61
2022/05/17 02:15:55;;;;;;;21.20;2.95;;;;;;;34.91;13.19;100449.31;4954801;28;20035;-61
2022/05/17 02:18:22;;;;;;;18.52;2.88;;;;;;;34.82;13.26;100457.53;4954924;28;20040;-62
2022/05/17 02:20:48;;;;;;;24.10;2.90;;;;;;;34.70;13.03;100463.88;4952486;29;20031;-59
2022/05/17 02:23:15;;;;;;;27.55;3.90;;;;;;;34.48;13.36;100464.34;4954608;29;20027;-61
2022/05/17 02:25:42;;;;;;;36.00;3.63;;;;;;;34.37;13.47;100463.75;4954941;29;20031;-60
2022/05/17 02:28:10;;;;;;;43.70;3.83;;;;;;;34.24;13.51;100460.75;4954750;29;20394;-61
2022/05/17 02:30:39;;;;;;;35.20;3.60;;;;;;;34.10;13.70;100463.03;4955142;28;20031;-61
2022/05/17 02:33:06;;;;;;;43.97;4.22;;;;;;;33.83;14.16;100474.41;4955393;29;20353;-60
2022/05/17 02:35:33;;;;;;;50.20;4.47;;;;;;;33.75;14.37;100470.09;4963804;28;20495;-62
2022/05/17 02:38:00;;;;;;;48.90;4.32;;;;;;;33.83;13.80;100472.38;4973256;28;20023;-62
2022/05/17 02:40:27;;;;;;;45.05;3.97;;;;;;;33.68;14.33;100471.03;4955023;29;20031;-62
2022/05/17 02:42:54;;;;;;;34.70;3.80;;;;;;;33.48;14.04;100478.63;4954445;29;20031;-62
2022/05/17 02:45:21;;;;;;;26.88;3.33;;;;;;;33.60;14.20;100478.84;4921557;29;20165;-61
2022/05/17 02:47:47;;;;;;;31.05;3.85;;;;;;;33.30;14.81;100485.31;4954371;28;20054;-62
2022/05/17 02:50:15;;;;;;;25.13;3.63;;;;;;;33.27;14.45;100480.53;4954676;28;20039;-61
2022/05/17 02:52:42;;;;;;;28.27;3.97;;;;;;;33.21;14.83;100487.06;4953555;29;20039;-60
2022/05/17 02:55:09;;;;;;;26.50;3.72;;;;;;;33.12;14.59;100484.78;4953951;29;20510;-61
2022/05/17 02:57:37;;;;;;;31.15;3.45;;;;;;;32.85;14.65;100486.78;4954201;28;20043;-61
2022/05/17 03:00:09;;;;;;;29.60;3.60;;;;;;;32.92;15.30;100495.13;4954501;29;20027;-62
2022/05/17 03:02:36;;;;;;;30.35;3.85;;;;;;;32.61;15.54;100495.09;4953728;28;20055;-61
2022/05/17 03:05:03;;;;;;;31.17;10.10;;;;;;;32.72;15.07;100495.78;4956439;28;20076;-63
2022/05/17 03:07:31;;;;;;;40.13;10.30;;;;;;;32.56;15.78;100503.22;4954192;29;20035;-60
2022/05/17 03:09:58;;;;;;;23.55;3.58;;;;;;;32.53;15.63;100498.44;4953905;28;20490;-62
2022/05/17 03:12:25;;;;;;;15.32;2.97;;;;;;;32.60;15.70;100501.94;4954174;29;20065;-61
2022/05/17 03:14:52;;;;;;;16.52;2.90;;;;;;;32.47;16.03;100503.69;4954137;29;20019;-61
2022/05/17 03:17:19;;;;;;;21.50;2.95;;;;;;;32.15;16.48;100516.09;4953982;29;20046;-60
2022/05/17 03:19:46;;;;;;;19.75;2.92;;;;;;;32.11;16.44;100534.19;4953687;28;20023;-62
2022/05/17 03:22:13;;;;;;;13.40;2.63;;;;;;;32.03;16.25;100527.84;4954218;29;20039;-61
2022/05/17 03:24:39;;;;;;;16.60;2.55;;;;;;;31.94;16.19;100521.91;4953740;29;20066;-60
2022/05/17 03:27:07;;;;;;;14.85;2.63;;;;;;;31.89;16.72;100527.97;4935784;29;20097;-63
2022/05/17 03:29:34;;;;;;;9.30;2.45;;;;;;;31.89;16.86;100532.81;4954133;29;20051;-61
2022/05/17 03:32:00;;;;;;;15.02;2.70;;;;;;;31.87;16.65;100536.03;4936536;29;20027;-61
2022/05/17 03:34:27;;;;;;;7.97;2.50;;;;;;;31.80;17.03;100536.91;4953240;28;20390;-61
2022/05/17 03:36:56;;;;;;;10.02;2.38;;;;;;;31.73;16.78;100547.38;4953223;28;20151;-60
2022/05/17 03:39:23;;;;;;;13.38;2.38;;;;;;;31.50;17.35;100545.94;4953796;29;20043;-64
2022/05/17 03:41:50;;;;;;;8.98;2.60;;;;;;;31.57;17.16;100545.06;4953920;29;20089;-60
2022/05/17 03:44:17;;;;;;;7.80;2.13;;;;;;;31.53;16.83;100558.34;4953516;29;20106;-60
2022/05/17 03:46:45;;;;;;;9.48;2.42;;;;;;;31.36;16.96;100556.44;4953772;28;20484;-60
2022/05/17 03:49:12;;;;;;;14.77;3.70;;;;;;;31.44;16.87;100572.88;4953629;28;20114;-61
2022/05/17 03:51:39;;;;;;;19.35;8.07;;;;;;;31.26;17.38;100564.53;4951358;29;20046;-61
2022/05/17 03:54:07;;;;;;;16.65;4.32;;;;;;;31.39;17.24;100573.28;4954204;29;20375;-61
2022/05/17 03:56:34;;;;;;;13.90;3.88;;;;;;;31.20;17.05;100568.16;4953458;29;20110;-62
2022/05/17 03:59:00;;;;;;;7.90;2.97;;;;;;;31.30;17.15;100580.56;4934056;29;20118;-61
2022/05/17 04:01:27;;;;;;;13.13;3.20;;;;;;;31.20;17.29;100585.00;4936333;29;20040;-62
2022/05/17 04:03:54;;;;;;;13.63;3.20;;;;;;;31.18;17.28;100591.03;4953513;28;20094;-63
2022/05/17 04:06:21;;;;;;;9.63;3.00;;;;;;;31.05;17.20;100589.06;4937107;29;20027;-61
2022/05/17 04:08:49;;;;;;;13.35;3.35;;;;;;;31.00;17.56;100584.69;4953565;29;20031;-62
2022/05/17 04:11:15;;;;;;;10.75;2.72;;;;;;;30.77;17.79;100592.78;4953601;28;20028;-62
2022/05/17 04:13:42;;;;;;;8.75;3.17;;;;;;;30.77;18.01;100587.19;4954056;29;20102;-62
2022/05/17 04:16:10;;;;;;;10.48;3.25;;;;;;;30.78;17.76;100606.41;4953615;29;20031;-60
2022/05/17 04:18:37;;;;;;;18.50;3.10;;;;;;;30.49;17.66;100594.44;4936406;29;20114;-60
2022/05/17 04:21:05;;;;;;;12.30;2.88;;;;;;;30.25;18.31;100600.88;4953751;29;20035;-62
2022/05/17 04:23:33;;;;;;;12.30;2.78;;;;;;;30.47;17.80;100594.03;4953606;29;20118;-61
2022/05/17 04:26:00;;;;;;;11.68;3.00;;;;;;;30.37;18.28;100608.88;4953524;29;20359;-60
2022/05/17 04:28:27;;;;;;;18.77;3.22;;;;;;;30.28;18.02;100600.88;4953807;29;20035;-61
2022/05/17 04:30:54;;;;;;;14.75;3.58;;;;;;;30.10;18.42;100605.69;4953702;29;20486;-62
2022/05/17 04:33:21;;;;;;;12.20;3.28;;;;;;;29.98;18.23;100614.44;4953390;29;20069;-62
2022/05/17 04:35:48;;;;;;;16.05;2.80;;;;;;;30.14;17.94;100612.09;4950018;28;20035;-62
2022/05/17 04:38:15;;;;;;;10.40;2.65;;;;;;;30.29;17.93;100612.88;4950964;28;20035;-62
2022/05/17 04:40:42;;;;;;;16.65;3.25;;;;;;;30.16;18.32;100620.91;4956880;29;20038;-61
2022/05/17 04:43:10;;;;;;;11.18;2.28;;;;;;;29.91;17.75;100620.06;4939449;29;20039;-62
2022/05/17 04:45:37;;;;;;;18.90;2.83;;;;;;;29.91;17.99;100620.88;4950568;28;20036;-61
2022/05/17 04:48:04;;;;;;;20.30;3.22;;;;;;;29.80;17.88;100625.66;4956421;29;20031;-61
2022/05/17 04:50:31;;;;;;;29.38;3.05;;;;;;;29.48;18.09;100622.81;4956638;29;20023;-61
2022/05/17 04:52:58;;;;;;;23.23;2.45;;;;;;;29.71;18.08;100623.25;4956578;29;20143;-62
2022/05/17 04:55:25;;;;;;;26.67;3.00;;;;;;;29.81;18.08;100623.66;4956394;29;20035;-62
2022/05/17 04:57:51;;;;;;;24.65;3.15;;;;;;;29.68;17.84;100626.03;4954923;29;20106;-63
2022/05/17 05:00:23;;;;;;;29.58;3.20;;;;;;;29.77;17.91;100627.25;4949145;29;20122;-61
2022/05/17 05:02:50;;;;;;;38.03;3.33;;;;;;;29.67;17.46;100622.44;4954809;28;20054;-62
2022/05/17 05:05:18;;;;;;;34.78;3.97;;;;;;;29.55;17.73;100628.41;4956743;28;20045;-60
2022/05/17 05:07:45;;;;;;;29.48;3.50;;;;;;;29.64;17.81;100637.25;4939333;29;20035;-62
2022/05/17 05:10:14;;;;;;;21.70;2.55;;;;;;;29.87;17.00;100636.09;4956416;29;20034;-62
2022/05/17 05:12:41;;;;;;;32.00;2.80;;;;;;;30.12;17.07;100639.72;4957168;28;20038;-61
2022/05/17 05:15:10;;;;;;;26.38;3.00;;;;;;;29.82;17.10;100634.47;4957629;29;20393;-61
2022/05/17 05:17:38;;;;;;;15.80;2.60;;;;;;;30.26;16.82;100639.72;4957190;29;20078;-61
2022/05/17 05:20:07;;;;;;;24.27;2.28;;;;;;;30.15;16.71;100636.13;4956101;29;20031;-61
2022/05/17 05:22:35;;;;;;;22.27;2.72;;;;;;;30.03;17.18;100642.09;4957031;28;20569;-61
2022/05/17 05:25:02;;;;;;;16.20;2.22;;;;;;;30.27;16.91;100652.53;4957154;29;20062;-60
2022/05/17 05:27:37;;;;;;;16.83;3.00;;;;;;;30.07;17.07;100642.94;4957461;28;20035;-60
2022/05/17 05:30:07;;;;;;;26.67;3.47;;;;;;;30.12;16.94;100636.91;4957331;29;20093;-60
2022/05/17 05:32:34;;;;;;;23.42;2.60;;;;;;;30.06;17.34;100642.13;4957045;28;20051;-60
2022/05/17 05:35:01;;;;;;;17.42;2.58;;;;;;;30.12;16.79;100639.72;4956931;29;20497;-61
2022/05/17 05:37:28;;;;;;;20.85;2.83;;;;;;;30.10;16.77;100644.94;4956298;28;20402;-61
2022/05/17 05:39:54;;;;;;;20.55;3.30;;;;;;;30.37;16.78;100646.16;4956976;29;20474;-60
2022/05/17 05:42:21;;;;;;;21.63;2.60;;;;;;;30.13;17.16;100643.31;4956473;28;20039;-60
2022/05/17 05:44:49;;;;;;;21.92;2.58;;;;;;;30.06;16.99;100655.34;4956914;29;20074;-61
2022/05/17 05:47:16;;;;;;;25.13;2.60;;;;;;;30.27;17.07;100644.13;4956989;29;20042;-61
2022/05/17 05:49:42;;;;;;;26.23;2.58;;;;;;;30.13;17.48;100644.13;4950305;28;20050;-62
2022/05/17 05:52:09;;;;;;;21.60;2.60;;;;;;;30.12;17.40;100641.72;4948771;29;20035;-62
2022/05/17 05:54:36;;;;;;;26.42;3.08;;;;;;;30.09;17.29;100648.94;4937774;29;20028;-62
2022/05/17 05:57:03;;;;;;;20.90;2.88;;;;;;;30.00;17.35;100652.13;4937487;29;20403;-61
2022/05/17 05:59:30;;;;;;;21.35;2.70;;;;;;;30.11;17.33;100657.75;4941685;29;20525;-61
2022/05/17 06:01:57;;;;;;;15.95;2.60;;;;;;;30.06;17.37;100646.94;4951554;29;20058;-60
2022/05/17 06:04:27;;;;;;;29.27;3.38;;;;;;;29.97;17.56;100649.28;4946490;29;20047;-62
2022/05/17 06:06:56;;;;;;;21.40;3.03;;;;;;;30.02;17.34;100651.72;4954640;28;20068;-60
2022/05/17 06:09:27;;;;;;;23.17;2.80;;;;;;;29.75;17.18;100643.66;4957035;29;20034;-60
2022/05/17 06:11:54;;;;;;;16.05;3.22;;;;;;;29.87;17.16;100652.88;4956051;29;20119;-61
2022/05/17 06:14:21;;;;;;;13.20;2.80;;;;;;;30.04;16.86;100649.34;4954947;29;20054;-59
2022/05/17 06:16:50;;;;;;;17.13;3.50;;;;;;;29.84;17.31;100650.88;4954229;29;20042;-63
2022/05/17 06:19:17;;;;;;;26.50;3.45;;;;;;;29.72;17.67;100647.25;4936316;29;20054;-61
2022/05/17 06:21:44;;;;;;;13.90;2.70;;;;;;;29.82;17.05;100650.50;4951873;28;20134;-61
2022/05/17 06:24:11;;;;;;;21.15;2.90;;;;;;;29.61;17.08;100646.41;4954892;28;20062;-61
2022/05/17 06:26:38;;;;;;;19.25;3.30;;;;;;;29.37;17.58;100650.72;4947239;28;20117;-61
2022/05/17 06:29:06;;;;;;;15.13;2.80;;;;;;;29.43;17.29;100645.53;4962050;28;20401;-61
2022/05/17 06:31:34;;;;;;;33.78;3.58;;;;;;;29.31;18.06;100648.72;4957419;28;20031;-62
2022/05/17 06:34:01;;;;;;;28.15;2.80;;;;;;;29.13;17.67;100652.22;4962542;28;20015;-62
2022/05/17 06:36:28;;;;;;;16.90;3.13;;;;;;;29.32;17.35;100647.50;4969101;28;20386;-62
2022/05/17 06:38:56;;;;;;;19.95;2.88;;;;;;;29.35;17.42;100650.31;4965982;28;20030;-61
2022/05/17 06:41:23;;;;;;;13.73;2.55;;;;;;;29.29;17.49;100648.31;4959346;28;20032;-62
2022/05/17 06:43:50;;;;;;;32.90;3.80;;;;;;;29.17;17.57;100643.84;4960052;28;20035;-60
2022/05/17 06:46:16;;;;;;;22.33;2.40;;;;;;;29.06;17.92;100643.78;4961948;28;20039;-63
2022/05/17 06:48:43;;;;;;;14.73;2.63;;;;;;;28.94;17.55;100646.16;4963327;28;20023;-62
2022/05/17 06:51:10;;;;;;;20.67;2.95;;;;;;;28.94;17.95;100644.16;4965553;28;20117;-61
2022/05/17 06:53:37;;;;;;;16.45;2.10;;;;;;;28.94;17.70;100646.94;4963777;28;20094;-61
2022/05/17 06:56:06;;;;;;;28.33;2.47;;;;;;;28.84;17.64;100642.03;4961439;28;20039;-61
2022/05/17 06:58:33;;;;;;;22.88;2.30;;;;;;;28.74;18.16;100642.81;4961540;28;20024;-60
2022/05/17 07:01:00;;;;;;;12.77;2.30;;;;;;;28.64;18.06;100644.31;4948209;28;20093;-61
2022/05/17 07:03:27;;;;;;;24.38;2.60;;;;;;;28.53;18.20;100655.44;4948539;28;20109;-61
2022/05/17 07:05:54;;;;;;;27.48;3.05;;;;;;;28.32;18.62;100657.25;4964065;28;20065;-61
2022/05/17 07:08:22;;;;;;;23.85;2.50;;;;;;;28.43;18.42;100644.19;4967075;28;20381;-61
2022/05/17 07:13:34;;;;;;;22.27;2.60;;;;;;;28.26;18.47;100645.66;4964465;28;20486;-61
2022/05/17 07:16:01;;;;;;;26.67;2.90;;;;;;;27.97;19.01;100644.56;4966762;28;20027;-61
2022/05/17 07:18:29;;;;;;;24.13;2.00;;;;;;;27.84;19.08;100652.44;4960637;28;20058;-61
2022/05/17 07:20:58;;;;;;;29.17;2.80;;;;;;;28.12;18.88;100648.28;4969975;28;20072;-61
2022/05/17 07:23:26;;;;;;;18.73;2.28;;;;;;;28.16;18.61;100646.31;4958672;28;20486;-59
2022/05/17 07:25:54;;;;;;;26.15;2.92;;;;;;;28.09;18.56;100646.28;4953068;28;20174;-61
2022/05/17 07:28:23;;;;;;;29.88;2.83;;;;;;;27.88;18.87;100644.88;4953468;28;20070;-61
2022/05/17 07:30:50;;;;;;;26.83;2.80;;;;;;;28.06;18.65;100647.03;4953779;28;20023;-61
2022/05/17 07:33:17;;;;;;;20.55;2.63;;;;;;;28.05;18.39;100653.81;4957888;28;20389;-60
2022/05/17 07:35:45;;;;;;;26.42;2.63;;;;;;;28.26;18.17;100651.25;4963387;28;20449;-60
2022/05/17 07:38:12;;;;;;;22.77;1.80;;;;;;;27.99;18.28;100647.75;4965690;28;20542;-59
2022/05/17 07:40:39;;;;;;;10.07;1.60;;;;;;;28.36;17.85;100644.91;4970317;28;20034;-59
2022/05/17 07:43:06;;;;;;;17.50;1.80;;;;;;;28.28;17.67;100644.06;4958568;28;20035;-60
2022/05/17 07:45:32;;;;;;;17.52;1.60;;;;;;;28.27;17.92;100652.84;4965772;28;20035;-60
2022/05/17 07:48:02;;;;;;;23.15;2.20;;;;;;;27.69;18.80;100636.72;4964136;28;20061;-60
2022/05/17 07:50:28;;;;;;;17.40;1.95;;;;;;;27.80;18.28;100643.19;4970117;28;20544;-60
2022/05/17 07:52:55;;;;;;;14.55;1.58;;;;;;;28.56;17.51;100637.09;4957477;28;20146;-60
2022/05/17 07:55:22;;;;;;;15.02;1.75;;;;;;;28.49;17.21;100637.03;4966872;28;20477;-60
2022/05/17 07:57:48;;;;;;;20.75;1.73;;;;;;;28.32;17.60;100634.91;4964454;28;20445;-60
2022/05/17 08:00:15;;;;;;;15.77;1.63;;;;;;;28.19;18.06;100642.78;4959891;28;20019;-60
2022/05/17 08:02:42;;;;;;;26.27;2.35;;;;;;;28.29;17.69;100642.06;4954995;28;20062;-60
2022/05/17 08:05:10;;;;;;;18.15;1.98;;;;;;;28.25;17.97;100638.41;4968556;28;20114;-61
2022/05/17 08:07:38;;;;;;;27.63;2.63;;;;;;;28.18;17.70;100643.94;4962436;28;20561;-61
2022/05/17 08:10:06;;;;;;;40.55;2.15;;;;;;;28.46;17.19;100633.03;4960960;28;20032;-60
2022/05/17 08:12:33;;;;;;;23.38;2.05;;;;;;;28.15;18.17;100641.91;4970103;28;20077;-61
2022/05/17 08:15:00;;;;;;;23.48;2.30;;;;;;;28.30;17.42;100635.28;4940826;29;20028;-60
2022/05/17 08:17:28;;;;;;;27.30;2.13;;;;;;;28.25;17.95;100638.41;4958398;29;20486;-61
2022/05/17 08:19:55;;;;;;;25.58;3.15;;;;;;;28.08;17.66;100639.06;4958407;29;20393;-61
2022/05/17 08:22:22;;;;;;;39.60;2.20;;;;;;;28.07;17.72;100643.06;4958196;29;20119;-60
2022/05/17 08:27:41;;;;;;;25.90;3.50;;;;;;;28.52;17.25;100625.88;4958258;29;20126;-61
2022/05/17 08:30:15;;;;;;;23.23;2.35;;;;;;;28.25;17.66;100646.81;4958129;29;20126;-60
2022/05/17 08:35:42;;;;;;;16.95;1.83;;;;;;;28.70;17.07;100627.97;4957305;28;20042;-60
2022/05/17 08:38:16;;;;;;;17.10;2.33;;;;;;;28.73;16.65;100636.41;4958275;29;20031;-58
2022/05/17 08:41:09;;;;;;;16.35;1.98;;;;;;;28.73;16.85;100630.81;4958005;29;20031;-62
2022/05/17 08:43:50;;;;;;;18.67;1.90;;;;;;;28.64;17.08;100623.94;4941306;29;20044;-61
2022/05/17 08:46:37;;;;;;;28.15;2.33;;;;;;;28.71;16.96;100626.78;4957973;29;20046;-61
2022/05/17 08:49:21;;;;;;;20.30;1.75;;;;;;;28.39;16.83;100629.38;4957932;29;20098;-61
2022/05/17 08:51:51;;;;;;;25.35;2.15;;;;;;;28.35;17.09;100625.72;4957855;29;20054;-61
2022/05/17 08:54:30;;;;;;;15.90;1.88;;;;;;;28.22;17.46;100634.41;4957880;29;20047;-61
2022/05/17 08:57:22;;;;;;;27.05;2.05;;;;;;;28.23;17.20;100630.44;4957961;29;20032;-60
2022/05/17 08:59:49;;;;;;;18.23;1.85;;;;;;;28.12;17.52;100618.34;4957750;29;20058;-62
2022/05/17 09:02:28;;;;;;;25.85;2.33;;;;;;;27.80;17.79;100623.63;4957514;28;20031;-60
2022/05/17 09:05:06;;;;;;;24.80;2.65;;;;;;;27.89;17.21;100614.97;4958076;29;20046;-60
2022/05/17 09:07:48;;;;;;;20.23;2.15;;;;;;;27.96;17.45;100627.00;4957103;28;20073;-60
2022/05/17 09:10:32;;;;;;;22.35;2.42;;;;;;;27.66;17.74;100618.75;4940523;29;20045;-60
2022/05/17 09:13:15;;;;;;;21.05;1.98;;;;;;;27.51;17.85;100621.72;4940466;29;20389;-61
2022/05/17 09:15:44;;;;;;;17.88;1.58;;;;;;;27.06;18.12;100623.56;4957605;29;20035;-61
2022/05/17 09:18:16;;;;;;;14.48;1.35;;;;;;;27.09;18.50;100620.81;4957525;28;20027;-61
2022/05/17 09:20:44;;;;;;;19.70;1.80;;;;;;;26.74;18.76;100628.69;4957742;29;20039;-61
2022/05/17 09:23:11;;;;;;;12.52;1.95;;;;;;;26.90;18.83;100622.94;4957400;28;20050;-61
2022/05/17 09:25:51;;;;;;;17.05;2.38;;;;;;;27.14;18.32;100625.28;4956588;28;20042;-61
2022/05/17 09:28:22;;;;;;;13.48;2.45;;;;;;;27.13;18.56;100629.25;4957487;29;20038;-60
2022/05/17 09:31:08;;;;;;;10.07;2.50;;;;;;;27.07;19.25;100630.75;4957095;28;20110;-61
2022/05/17 09:33:39;;;;;;;10.90;3.20;;;;;;;26.37;20.22;100637.69;4956031;29;20039;-59
2022/05/17 09:36:08;;;;;;;19.63;5.60;;;;;;;25.59;23.27;100647.41;4956932;28;20035;-61
2022/05/17 09:38:38;;;;;;;26.58;7.80;;;;;;;24.92;25.48;100650.34;4956936;29;20023;-60
2022/05/17 09:41:11;;;;;;;30.08;8.85;;;;;;;24.34;26.95;100655.75;4957040;29;20031;-61
2022/05/17 09:43:43;;;;;;;27.55;8.60;;;;;;;24.00;28.00;100653.66;4956796;29;20075;-60
2022/05/17 09:46:27;;;;;;;26.48;7.45;;;;;;;23.80;28.72;100653.56;4956983;29;20039;-59
2022/05/17 09:54:47;;;;;;;21.67;5.70;;;;;;;23.40;31.27;100663.91;4956877;29;20043;-61
2022/05/17 09:57:21;;;;;;;15.98;4.93;;;;;;;23.35;31.49;100664.16;4955487;29;20410;-61
2022/05/17 09:59:53;;;;;;;21.25;4.85;;;;;;;23.27;31.54;100660.34;4956754;29;20522;-61
2022/05/17 10:02:29;;;;;;;20.85;4.82;;;;;;;23.16;32.15;100660.06;4956332;29;20121;-60
2022/05/17 10:04:58;;;;;;;21.63;5.20;;;;;;;23.00;33.20;100659.19;4956613;29;20498;-60
2022/05/17 10:07:29;;;;;;;27.38;6.38;;;;;;;22.92;33.47;100668.41;4968970;28;20026;-61
2022/05/17 10:09:56;;;;;;;23.98;6.00;;;;;;;22.95;34.02;100661.34;4975821;28;20046;-61
2022/05/17 10:12:33;;;;;;;16.00;5.30;;;;;;;23.03;35.19;100671.53;4958511;28;20027;-59
2022/05/17 10:15:13;;;;;;;24.08;5.55;;;;;;;22.99;35.32;100674.19;4958351;28;20035;-60
2022/05/17 10:17:51;;;;;;;19.83;5.05;;;;;;;22.85;35.89;100668.22;4975604;28;20039;-61
2022/05/17 10:20:23;;;;;;;19.02;5.38;;;;;;;22.83;36.51;100673.28;4975755;28;20031;-60
2022/05/17 10:22:55;;;;;;;14.98;4.55;;;;;;;22.77;36.67;100674.63;4975446;28;20034;-59
2022/05/17 10:25:43;;;;;;;18.30;4.53;;;;;;;22.75;37.17;100679.72;4958237;28;20482;-60
2022/05/17 10:28:44;;;;;;;14.13;4.93;;;;;;;22.68;36.38;100687.81;4975535;28;20441;-61
2022/05/17 10:31:29;;;;;;;19.05;6.38;;;;;;;22.58;38.90;100681.56;4943751;28;20046;-61
2022/05/17 10:34:17;;;;;;;22.70;6.50;;;;;;;22.50;38.67;100684.47;4975400;28;20035;-60
2022/05/17 10:36:52;;;;;;;21.38;5.40;;;;;;;22.50;39.40;100688.06;4974568;28;20039;-61
2022/05/17 10:39:50;;;;;;;25.27;5.75;;;;;;;22.34;38.54;100698.19;4975472;28;20078;-61
2022/05/17 10:42:17;;;;;;;27.55;7.68;;;;;;;22.21;38.63;100691.81;4975395;28;20039;-60
2022/05/17 10:44:50;;;;;;;26.92;7.38;;;;;;;22.02;38.45;100691.53;4975254;28;20051;-60
2022/05/17 10:47:25;;;;;;;20.25;7.57;;;;;;;22.07;39.14;100682.22;4975193;28;20445;-60
2022/05/17 10:50:37;;;;;;;32.88;8.82;;;;;;;22.05;39.65;100690.88;4975266;28;20034;-61
2022/05/17 10:53:10;;;;;;;25.48;7.30;;;;;;;22.10;39.05;100695.41;4975014;28;20039;-60
2022/05/17 10:55:42;;;;;;;31.30;7.85;;;;;;;21.92;40.36;100697.50;4975220;28;20038;-61
2022/05/17 10:58:49;;;;;;;63.53;7.82;;;;;;;21.69;41.47;100699.84;4974960;28;20043;-61
2022/05/17 11:01:26;;;;;;;23.10;5.85;;;;;;;21.77;40.69;100696.19;4945409;28;20636;-60
2022/05/17 11:04:00;;;;;;;16.05;5.40;;;;;;;21.77;40.61;100695.38;4974740;28;20084;-60
2022/05/17 11:06:45;;;;;;;24.30;5.40;;;;;;;21.95;40.88;100702.34;4974441;28;20045;-60
2022/05/17 11:09:23;;;;;;;17.07;5.67;;;;;;;21.71;41.59;100703.88;4974956;28;20516;-60
2022/05/17 11:12:08;;;;;;;12.25;4.78;;;;;;;21.50;41.66;100705.06;4974661;28;20042;-61
2022/05/17 11:15:19;;;;;;;18.52;5.10;;;;;;;21.44;41.71;100703.66;4974848;28;20050;-61
2022/05/17 11:17:51;;;;;;;21.58;5.30;;;;;;;21.51;41.35;100696.44;4963403;28;20047;-60
2022/05/17 11:20:40;;;;;;;14.07;4.97;;;;;;;21.38;41.63;100701.09;4957522;28;20572;-60
2022/05/17 11:23:22;;;;;;;66.40;7.30;;;;;;;21.32;42.48;100702.44;4974650;28;20485;-61
2022/05/17 11:26:19;;;;;;;266.67;12.18;;;;;;;21.50;41.80;100703.09;4974953;28;20031;-61
2022/05/17 11:28:52;;;;;;;145.07;9.55;;;;;;;21.48;42.25;100715.66;4975145;28;20041;-60
2022/05/17 11:31:43;;;;;;;17.63;6.65;;;;;;;21.68;41.29;100714.81;4975639;28;20544;-60
2022/05/17 11:34:24;;;;;;;18.85;6.28;;;;;;;21.74;40.98;100719.00;4974456;28;20170;-61
2022/05/17 11:37:08;;;;;;;16.58;6.38;;;;;;;21.67;41.94;100716.78;4968162;28;20375;-60
2022/05/17 11:39:37;;;;;;;26.38;6.90;;;;;;;21.56;42.72;100718.34;4955299;29;20474;-61
2022/05/17 11:42:25;;;;;;;21.33;5.93;;;;;;;21.56;43.61;100717.56;4955110;29;20479;-62
2022/05/17 11:44:53;;;;;;;23.42;5.47;;;;;;;21.44;44.82;100712.75;4955094;29;20043;-61
2022/05/17 11:47:54;;;;;;;13.93;5.00;;;;;;;21.37;44.13;100713.31;4937508;29;20027;-61
2022/05/17 11:50:42;;;;;;;39.53;5.20;;;;;;;21.38;45.46;100723.22;4954824;28;20394;-60
2022/05/17 11:53:24;;;;;;;47.78;4.90;;;;;;;21.40;45.14;100729.22;4954931;28;20401;-60